createdAt,value
2023-04-09T00:00:14.468Z,93888.06
2023-04-09T00:01:11.834Z,93891.31
2023-04-09T00:02:11.146Z,93893.50
2023-04-09T00:03:08.069Z,93890.69
2023-04-09T00:04:05.149Z,93853.81
2023-04-09T00:05:02.357Z,93898.34
2023-04-09T00:05:59.063Z,93890.84
2023-04-09T00:06:55.712Z,93873.88
2023-04-09T00:07:52.346Z,93900.53
2023-04-09T00:08:49.000Z,93895.09
2023-04-09T00:09:45.702Z,93895.84
2023-04-09T00:10:42.297Z,93891.97
2023-04-09T00:11:38.918Z,93883.09
2023-04-09T00:12:35.746Z,93860.97
2023-04-09T00:13:39.319Z,93897.91
2023-04-09T00:14:36.584Z,93897.75
2023-04-09T00:15:33.204Z,93894.31
2023-04-09T00:16:29.820Z,93896.78
2023-04-09T00:17:26.766Z,93861.31
2023-04-09T00:18:23.458Z,93902.69
2023-04-09T00:19:20.783Z,93887.41
2023-04-09T00:20:17.443Z,93892.84
2023-04-09T00:21:14.947Z,93897.22
2023-04-09T00:22:11.536Z,93894.84
2023-04-09T00:23:08.096Z,93898.91
2023-04-09T00:24:04.942Z,93905.50
2023-04-09T00:25:01.620Z,93908.78
2023-04-09T00:25:58.532Z,93898.03
2023-04-09T00:26:55.803Z,93871.56
2023-04-09T00:27:52.397Z,93900.53
2023-04-09T00:28:49.160Z,93908.47
2023-04-09T00:29:46.022Z,93894.28
2023-04-09T00:30:42.645Z,93905.69
2023-04-09T00:31:39.314Z,93905.97
2023-04-09T00:32:36.168Z,93901.88
2023-04-09T00:33:32.852Z,93882.09
2023-04-09T00:34:29.514Z,93909.53
2023-04-09T00:35:26.124Z,93908.78
2023-04-09T00:36:24.114Z,93912.66
2023-04-09T00:37:21.861Z,93905.81
2023-04-09T00:38:18.521Z,93910.34
2023-04-09T00:39:15.417Z,93893.84
2023-04-09T00:40:12.101Z,93906.47
2023-04-09T00:41:08.794Z,93873.44
2023-04-09T00:42:05.380Z,93906.94
2023-04-09T00:43:02.528Z,93907.38
2023-04-09T00:43:59.129Z,93907.84
2023-04-09T00:44:55.691Z,93906.13
2023-04-09T00:45:52.395Z,93905.00
2023-04-09T00:46:49.205Z,93903.31
2023-04-09T00:47:46.857Z,93907.25
2023-04-09T00:48:43.840Z,93903.94
2023-04-09T00:49:40.722Z,93903.19
2023-04-09T00:50:37.501Z,93873.44
2023-04-09T00:51:34.429Z,93898.81
2023-04-09T00:52:31.164Z,93906.28
2023-04-09T00:53:27.972Z,93899.28
2023-04-09T00:54:24.719Z,93892.28
2023-04-09T00:55:21.604Z,93902.84
2023-04-09T00:56:19.913Z,93901.31
2023-04-09T00:57:16.908Z,93902.88
2023-04-09T00:58:14.240Z,93900.03
2023-04-09T00:59:11.201Z,93902.69
2023-04-09T01:00:08.550Z,93898.50
2023-04-09T01:01:05.424Z,93906.28
2023-04-09T01:02:02.369Z,93897.56
2023-04-09T01:03:00.918Z,93764.78
2023-04-09T01:03:57.796Z,93894.28
2023-04-09T01:04:54.637Z,93899.28
2023-04-09T01:06:17.802Z,93898.03
2023-04-09T01:07:46.681Z,93907.53
2023-04-09T01:09:14.593Z,93897.41
2023-04-09T01:10:24.678Z,93898.66
2023-04-09T01:12:01.459Z,93908.94
2023-04-09T01:13:08.732Z,93846.94
2023-04-09T01:14:24.247Z,93899.25
2023-04-09T01:15:31.359Z,93903.34
2023-04-09T01:16:29.825Z,93906.47
2023-04-09T01:18:04.623Z,93896.78
2023-04-09T01:19:18.813Z,93897.09
2023-04-09T01:20:37.540Z,93882.59
2023-04-09T01:21:34.795Z,93900.38
2023-04-09T01:22:39.486Z,93890.72
2023-04-09T01:24:02.869Z,93903.81
2023-04-09T01:25:08.750Z,93898.34
2023-04-09T01:26:22.813Z,93896.50
2023-04-09T01:27:20.033Z,93897.69
2023-04-09T01:28:19.657Z,93902.56
2023-04-09T01:29:20.430Z,93902.22
2023-04-09T01:30:18.149Z,93905.50
2023-04-09T01:31:19.085Z,93906.44
2023-04-09T01:32:18.647Z,93897.28
2023-04-09T01:33:17.732Z,93897.56
2023-04-09T01:34:16.202Z,93901.47
2023-04-09T01:35:14.058Z,93897.72
2023-04-09T01:36:11.611Z,93899.13
2023-04-09T01:37:09.540Z,93901.59
2023-04-09T01:38:06.861Z,93868.41
2023-04-09T01:39:03.638Z,93905.78
2023-04-09T01:40:01.630Z,93905.44
2023-04-09T01:41:01.145Z,93867.78
2023-04-09T01:41:58.040Z,93905.19
2023-04-09T01:42:55.573Z,93906.13
2023-04-09T01:43:53.277Z,93904.44
2023-04-09T01:44:50.490Z,93909.38
2023-04-09T01:45:48.214Z,93900.00
2023-04-09T01:46:47.283Z,93890.53
2023-04-09T01:47:44.708Z,93898.00
2023-04-09T01:48:42.216Z,93899.53
2023-04-09T01:49:40.930Z,93894.53
2023-04-09T01:50:37.702Z,93905.44
2023-04-09T01:51:34.582Z,93905.22
2023-04-09T01:52:31.631Z,93887.28
2023-04-09T01:53:28.506Z,93844.31
2023-04-09T01:54:25.337Z,93914.41
2023-04-09T01:55:21.953Z,93859.59
2023-04-09T01:56:18.648Z,93905.06
2023-04-09T01:57:15.469Z,93908.16
2023-04-09T01:58:13.967Z,93878.88
2023-04-09T01:59:10.854Z,93906.13
2023-04-09T02:00:09.406Z,93916.88
2023-04-09T02:01:12.131Z,93902.69
2023-04-09T02:02:17.812Z,93907.22
2023-04-09T02:03:26.732Z,93901.16
2023-04-09T02:04:29.940Z,93907.06
2023-04-09T02:05:31.916Z,93892.09
2023-04-09T02:06:40.493Z,93897.41
2023-04-09T02:07:42.716Z,93854.91
2023-04-09T02:08:40.386Z,93904.44
2023-04-09T02:09:39.484Z,93878.75
2023-04-09T02:10:38.779Z,93907.56
2023-04-09T02:11:40.295Z,93903.19
2023-04-09T02:12:38.519Z,93912.19
2023-04-09T02:13:36.448Z,93909.72
2023-04-09T02:14:33.530Z,93910.97
2023-04-09T02:15:33.082Z,93905.84
2023-04-09T02:16:31.953Z,93903.81
2023-04-09T02:17:28.715Z,93903.66
2023-04-09T02:18:28.616Z,93911.91
2023-04-09T02:19:25.407Z,93907.84
2023-04-09T02:20:22.062Z,93902.41
2023-04-09T02:21:18.788Z,93907.41
2023-04-09T02:22:17.212Z,93903.78
2023-04-09T02:23:16.333Z,93882.28
2023-04-09T02:24:12.957Z,93880.25
2023-04-09T02:25:09.799Z,93814.41
2023-04-09T02:26:06.458Z,93903.34
2023-04-09T02:27:03.291Z,93881.84
2023-04-09T02:28:01.126Z,93902.06
2023-04-09T02:28:57.693Z,93905.84
2023-04-09T02:29:54.330Z,93906.31
2023-04-09T02:30:51.080Z,93865.66
2023-04-09T02:31:47.723Z,93897.75
2023-04-09T02:32:44.378Z,93902.41
2023-04-09T02:33:41.401Z,93904.59
2023-04-09T02:34:38.032Z,93898.06
2023-04-09T02:35:34.890Z,93864.72
2023-04-09T02:36:31.644Z,93907.84
2023-04-09T02:37:28.269Z,93873.28
2023-04-09T02:38:25.051Z,93888.84
2023-04-09T02:39:21.644Z,93902.25
2023-04-09T02:40:18.361Z,93902.72
2023-04-09T02:41:15.137Z,93906.31
2023-04-09T02:42:11.722Z,93899.59
2023-04-09T02:43:09.153Z,93901.63
2023-04-09T02:44:05.893Z,93894.63
2023-04-09T02:45:02.518Z,93892.09
2023-04-09T02:45:59.285Z,93865.50
2023-04-09T02:46:55.947Z,93906.78
2023-04-09T02:47:52.551Z,93865.50
2023-04-09T02:48:49.162Z,93911.59
2023-04-09T02:49:45.808Z,93904.13
2023-04-09T02:50:42.429Z,93900.81
2023-04-09T02:51:39.033Z,93908.59
2023-04-09T02:52:35.728Z,93856.31
2023-04-09T02:53:32.314Z,93906.28
2023-04-09T02:54:28.897Z,93903.50
2023-04-09T02:55:25.772Z,93903.19
2023-04-09T02:56:22.356Z,93906.63
2023-04-09T02:57:18.994Z,93905.84
2023-04-09T02:58:15.764Z,93859.91
2023-04-09T02:59:12.447Z,93855.53
2023-04-09T03:00:10.140Z,93893.03
2023-04-09T03:01:06.778Z,93907.38
2023-04-09T03:02:03.431Z,93911.41
2023-04-09T03:03:00.171Z,93891.97
2023-04-09T03:03:56.992Z,93891.19
2023-04-09T03:04:53.747Z,93871.84
2023-04-09T03:05:50.368Z,93905.69
2023-04-09T03:06:46.936Z,93822.69
2023-04-09T03:07:43.539Z,93902.38
2023-04-09T03:08:40.262Z,93886.19
2023-04-09T03:09:36.908Z,93901.91
2023-04-09T03:10:33.562Z,93901.16
2023-04-09T03:11:30.384Z,93900.03
2023-04-09T03:12:27.374Z,93898.50
2023-04-09T03:13:24.024Z,93899.44
2023-04-09T03:14:20.656Z,93891.81
2023-04-09T03:15:17.394Z,93894.47
2023-04-09T03:16:13.999Z,93889.97
2023-04-09T03:17:10.792Z,93894.28
2023-04-09T03:18:07.591Z,93892.44
2023-04-09T03:19:04.215Z,93880.13
2023-04-09T03:20:00.894Z,93886.66
2023-04-09T03:20:57.459Z,93874.22
2023-04-09T03:21:54.023Z,93890.56
2023-04-09T03:22:50.647Z,93894.28
2023-04-09T03:23:47.300Z,93893.22
2023-04-09T03:24:43.874Z,93898.19
2023-04-09T03:25:40.519Z,93903.47
2023-04-09T03:26:37.178Z,93895.84
2023-04-09T03:27:33.831Z,93889.94
2023-04-09T03:28:31.234Z,93899.44
2023-04-09T03:29:27.824Z,93793.38
2023-04-09T03:30:24.453Z,93893.69
2023-04-09T03:31:21.144Z,93892.91
2023-04-09T03:32:19.112Z,93892.75
2023-04-09T03:33:15.811Z,93854.75
2023-04-09T03:34:12.400Z,93881.69
2023-04-09T03:35:09.151Z,93892.53
2023-04-09T03:36:06.372Z,93901.84
2023-04-09T03:37:03.012Z,93900.28
2023-04-09T03:37:59.643Z,93897.53
2023-04-09T03:38:56.366Z,93896.13
2023-04-09T03:39:52.990Z,93861.16
2023-04-09T03:40:49.621Z,93895.75
2023-04-09T03:41:46.320Z,93897.78
2023-04-09T03:42:43.686Z,93887.34
2023-04-09T03:43:40.348Z,93878.47
2023-04-09T03:44:36.954Z,93894.75
2023-04-09T03:45:33.570Z,93878.06
2023-04-09T03:46:30.204Z,93859.50
2023-04-09T03:47:26.902Z,93892.00
2023-04-09T03:48:23.530Z,93899.66
2023-04-09T03:49:20.092Z,93884.78
2023-04-09T03:50:16.738Z,93889.00
2023-04-09T03:51:14.445Z,93889.28
2023-04-09T03:52:11.108Z,93886.81
2023-04-09T03:53:08.169Z,93856.31
2023-04-09T03:54:04.777Z,93893.78
2023-04-09T03:55:03.501Z,93895.03
2023-04-09T03:56:01.698Z,93892.53
2023-04-09T03:56:58.480Z,93895.53
2023-04-09T03:57:55.089Z,93900.00
2023-04-09T03:58:51.949Z,93876.38
2023-04-09T03:59:48.909Z,93837.69
2023-04-09T04:00:45.754Z,93905.69
2023-04-09T04:01:42.563Z,93898.41
2023-04-09T04:02:39.678Z,93897.97
2023-04-09T04:03:36.976Z,93909.00
2023-04-09T04:04:33.866Z,93897.16
2023-04-09T04:05:30.850Z,93887.16
2023-04-09T04:06:27.885Z,93913.66
2023-04-09T04:07:24.510Z,93914.16
2023-04-09T04:08:21.066Z,93914.59
2023-04-09T04:09:17.821Z,93911.31
2023-04-09T04:10:14.562Z,93914.88
2023-04-09T04:11:11.336Z,93903.50
2023-04-09T04:12:07.967Z,93918.47
2023-04-09T04:13:06.645Z,93872.34
2023-04-09T04:14:03.252Z,93917.22
2023-04-09T04:15:01.262Z,93903.66
2023-04-09T04:15:57.944Z,93909.31
2023-04-09T04:16:54.604Z,93923.50
2023-04-09T04:17:51.259Z,93929.72
2023-04-09T04:18:47.886Z,93925.81
2023-04-09T04:19:44.484Z,93919.59
2023-04-09T04:20:41.079Z,93906.06
2023-04-09T04:21:37.712Z,93924.59
2023-04-09T04:22:35.455Z,93925.66
2023-04-09T04:23:32.092Z,93926.78
2023-04-09T04:24:28.824Z,93924.13
2023-04-09T04:25:25.642Z,93923.16
2023-04-09T04:26:22.229Z,93924.28
2023-04-09T04:27:19.034Z,93923.97
2023-04-09T04:28:15.762Z,93924.28
2023-04-09T04:29:12.352Z,93930.50
2023-04-09T04:30:09.545Z,93912.94
2023-04-09T04:31:13.020Z,93921.38
2023-04-09T04:32:09.662Z,93921.88
2023-04-09T04:33:06.255Z,93930.91
2023-04-09T04:34:02.936Z,93941.50
2023-04-09T04:34:59.600Z,93924.53
2023-04-09T04:36:06.423Z,93914.41
2023-04-09T04:37:03.006Z,93923.91
2023-04-09T04:37:59.636Z,93926.09
2023-04-09T04:38:56.213Z,93927.94
2023-04-09T04:39:52.780Z,93888.69
2023-04-09T04:40:49.355Z,93925.16
2023-04-09T04:41:45.937Z,93927.66
2023-04-09T04:42:42.540Z,93931.22
2023-04-09T04:43:41.440Z,93928.44
2023-04-09T04:44:38.094Z,93929.97
2023-04-09T04:45:34.756Z,93926.09
2023-04-09T04:46:31.579Z,93927.66
2023-04-09T04:47:28.128Z,93930.44
2023-04-09T04:48:24.913Z,93906.16
2023-04-09T04:49:21.494Z,93931.69
2023-04-09T04:50:18.131Z,93933.09
2023-04-09T04:51:14.787Z,93934.81
2023-04-09T04:52:11.621Z,93883.84
2023-04-09T04:53:08.316Z,93932.50
2023-04-09T04:54:04.959Z,93933.25
2023-04-09T04:55:01.517Z,93933.88
2023-04-09T04:55:58.201Z,93933.09
2023-04-09T04:56:54.804Z,93940.72
2023-04-09T04:57:52.644Z,93942.59
2023-04-09T04:58:49.283Z,93933.41
2023-04-09T04:59:45.881Z,93931.84
2023-04-09T05:00:42.536Z,93924.84
2023-04-09T05:01:39.245Z,93946.66
2023-04-09T05:02:35.961Z,93939.31
2023-04-09T05:03:32.813Z,93939.00
2023-04-09T05:04:29.512Z,93919.38
2023-04-09T05:05:26.090Z,93944.31
2023-04-09T05:06:22.879Z,93945.72
2023-04-09T05:07:19.484Z,93947.75
2023-04-09T05:08:16.166Z,93940.91
2023-04-09T05:09:12.968Z,93931.06
2023-04-09T05:10:09.806Z,93944.44
2023-04-09T05:11:06.399Z,93946.94
2023-04-09T05:12:03.064Z,93945.72
2023-04-09T05:12:59.843Z,93884.47
2023-04-09T05:13:56.642Z,93937.91
2023-04-09T05:14:53.284Z,93951.81
2023-04-09T05:15:49.922Z,93947.56
2023-04-09T05:16:46.866Z,93940.06
2023-04-09T05:17:43.907Z,93949.28
2023-04-09T05:18:40.723Z,93935.34
2023-04-09T05:19:37.394Z,93910.56
2023-04-09T05:20:34.779Z,93933.84
2023-04-09T05:21:32.019Z,93939.03
2023-04-09T05:22:28.666Z,93941.84
2023-04-09T05:23:25.613Z,93935.88
2023-04-09T05:24:22.226Z,93949.44
2023-04-09T05:25:18.938Z,93940.28
2023-04-09T05:26:15.616Z,93944.75
2023-04-09T05:27:12.211Z,93930.78
2023-04-09T05:28:11.207Z,93947.03
2023-04-09T05:29:07.774Z,93950.41
2023-04-09T05:30:04.564Z,93952.69
2023-04-09T05:31:01.751Z,93947.28
2023-04-09T05:31:58.806Z,93935.41
2023-04-09T05:32:55.539Z,93898.75
2023-04-09T05:33:52.948Z,93939.81
2023-04-09T05:34:49.578Z,93942.94
2023-04-09T05:35:46.256Z,93940.22
2023-04-09T05:36:42.877Z,93946.22
2023-04-09T05:37:39.488Z,93938.59
2023-04-09T05:38:36.042Z,93935.81
2023-04-09T05:39:33.124Z,93935.31
2023-04-09T05:40:29.733Z,93943.53
2023-04-09T05:41:26.351Z,93936.72
2023-04-09T05:42:23.142Z,93888.75
2023-04-09T05:43:19.736Z,93942.53
2023-04-09T05:44:16.326Z,93911.63
2023-04-09T05:45:12.965Z,93934.91
2023-04-09T05:46:10.307Z,93934.84
2023-04-09T05:47:07.276Z,93931.41
2023-04-09T05:48:04.118Z,93941.41
2023-04-09T05:49:00.974Z,93938.94
2023-04-09T05:49:57.601Z,93941.00
2023-04-09T05:50:55.373Z,93905.75
2023-04-09T05:51:52.684Z,93927.38
2023-04-09T05:52:49.237Z,93945.47
2023-04-09T05:53:45.822Z,93938.50
2023-04-09T05:54:42.427Z,93945.88
2023-04-09T05:55:38.985Z,93934.25
2023-04-09T05:56:35.606Z,93873.31
2023-04-09T05:57:32.725Z,93934.94
2023-04-09T05:58:29.708Z,93945.47
2023-04-09T05:59:27.091Z,93940.06
2023-04-09T06:00:23.867Z,93923.22
2023-04-09T06:01:21.159Z,93945.31
2023-04-09T06:02:18.227Z,93940.16
2023-04-09T06:03:15.019Z,93944.38
2023-04-09T06:04:11.937Z,93946.47
2023-04-09T06:05:09.184Z,93941.84
2023-04-09T06:06:05.936Z,93948.34
2023-04-09T06:07:02.649Z,93948.13
2023-04-09T06:07:59.247Z,93947.16
2023-04-09T06:08:55.835Z,93906.56
2023-04-09T06:09:52.401Z,93953.94
2023-04-09T06:10:49.006Z,93953.47
2023-04-09T06:11:45.806Z,93945.78
2023-04-09T06:12:42.381Z,93946.03
2023-04-09T06:13:39.614Z,93952.13
2023-04-09T06:14:36.171Z,93948.13
2023-04-09T06:15:32.821Z,93948.75
2023-04-09T06:16:29.528Z,93950.13
2023-04-09T06:17:26.168Z,93952.31
2023-04-09T06:18:22.748Z,93949.94
2023-04-09T06:19:19.657Z,93950.97
2023-04-09T06:20:16.539Z,93949.94
2023-04-09T06:21:16.174Z,93945.25
2023-04-09T06:22:12.782Z,93948.09
2023-04-09T06:23:09.385Z,93945.91
2023-04-09T06:24:06.477Z,93939.94
2023-04-09T06:25:03.408Z,93946.44
2023-04-09T06:26:00.434Z,93946.56
2023-04-09T06:26:57.031Z,93948.81
2023-04-09T06:27:53.724Z,93939.75
2023-04-09T06:28:50.442Z,93918.94
2023-04-09T06:29:47.009Z,93937.25
2023-04-09T06:30:43.558Z,93874.38
2023-04-09T06:31:40.271Z,93945.53
2023-04-09T06:32:46.980Z,93942.28
2023-04-09T06:33:50.562Z,93942.16
2023-04-09T06:34:48.319Z,93947.19
2023-04-09T06:35:45.026Z,93942.19
2023-04-09T06:36:41.708Z,93942.97
2023-04-09T06:37:38.298Z,93949.56
2023-04-09T06:38:34.990Z,93939.97
2023-04-09T06:39:33.102Z,93904.31
2023-04-09T06:40:30.383Z,93945.31
2023-04-09T06:41:26.923Z,93956.31
2023-04-09T06:42:23.533Z,93954.94
2023-04-09T06:43:20.116Z,93948.38
2023-04-09T06:44:16.765Z,93951.44
2023-04-09T06:45:13.358Z,93952.38
2023-04-09T06:46:09.984Z,93951.41
2023-04-09T06:47:08.820Z,93944.81
2023-04-09T06:48:07.215Z,93951.44
2023-04-09T06:49:03.828Z,93951.03
2023-04-09T06:50:00.709Z,93943.03
2023-04-09T06:50:57.429Z,93928.75
2023-04-09T06:51:54.045Z,93950.19
2023-04-09T06:52:51.545Z,93945.53
2023-04-09T06:53:48.403Z,93943.41
2023-04-09T06:54:46.240Z,93956.31
2023-04-09T06:55:43.240Z,93958.03
2023-04-09T06:56:39.915Z,93931.06
2023-04-09T06:57:36.591Z,93938.41
2023-04-09T06:58:33.365Z,93952.88
2023-04-09T06:59:30.001Z,93952.41
2023-04-09T07:00:26.999Z,93952.94
2023-04-09T07:01:23.712Z,93960.75
2023-04-09T07:02:20.646Z,93960.81
2023-04-09T07:03:17.521Z,93960.97
2023-04-09T07:04:14.290Z,93959.50
2023-04-09T07:05:10.981Z,93965.50
2023-04-09T07:06:07.553Z,93963.16
2023-04-09T07:07:04.213Z,93949.31
2023-04-09T07:08:00.830Z,93960.16
2023-04-09T07:08:57.395Z,93975.50
2023-04-09T07:09:54.088Z,93978.34
2023-04-09T07:10:50.709Z,93977.41
2023-04-09T07:11:47.736Z,93964.84
2023-04-09T07:12:44.471Z,93951.97
2023-04-09T07:13:41.117Z,93967.06
2023-04-09T07:14:37.861Z,93970.59
2023-04-09T07:15:34.588Z,93967.03
2023-04-09T07:16:31.223Z,93966.38
2023-04-09T07:17:28.117Z,93974.41
2023-04-09T07:18:24.734Z,93971.53
2023-04-09T07:19:21.487Z,93928.03
2023-04-09T07:20:18.170Z,93972.94
2023-04-09T07:21:14.724Z,93968.66
2023-04-09T07:22:11.264Z,93915.97
2023-04-09T07:23:07.886Z,93959.44
2023-04-09T07:24:04.635Z,93976.72
2023-04-09T07:25:01.357Z,93973.38
2023-04-09T07:25:57.902Z,93983.69
2023-04-09T07:26:54.633Z,93978.13
2023-04-09T07:27:51.280Z,93961.22
2023-04-09T07:28:47.826Z,93973.91
2023-04-09T07:29:44.978Z,93953.63
2023-04-09T07:30:42.207Z,93976.22
2023-04-09T07:31:38.919Z,93980.88
2023-04-09T07:32:36.136Z,93978.69
2023-04-09T07:33:32.747Z,93974.97
2023-04-09T07:34:29.575Z,93979.94
2023-04-09T07:35:26.601Z,93979.97
2023-04-09T07:36:23.330Z,93980.91
2023-04-09T07:37:20.852Z,93940.25
2023-04-09T07:38:17.455Z,93982.34
2023-04-09T07:39:14.276Z,93980.84
2023-04-09T07:40:11.573Z,93854.03
2023-04-09T07:41:11.074Z,93972.88
2023-04-09T07:42:07.624Z,93941.84
2023-04-09T07:43:05.240Z,93973.34
2023-04-09T07:44:03.522Z,93977.56
2023-04-09T07:45:00.773Z,93979.41
2023-04-09T07:45:57.420Z,93982.03
2023-04-09T07:46:54.127Z,93970.31
2023-04-09T07:47:50.873Z,93981.88
2023-04-09T07:48:49.489Z,93981.16
2023-04-09T07:49:46.128Z,93980.47
2023-04-09T07:50:42.793Z,93979.38
2023-04-09T07:51:39.452Z,93963.38
2023-04-09T07:52:36.375Z,93987.44
2023-04-09T07:53:33.178Z,93936.72
2023-04-09T07:54:31.495Z,93985.50
2023-04-09T07:55:28.538Z,93981.03
2023-04-09T07:56:25.603Z,93984.06
2023-04-09T07:57:22.236Z,93981.75
2023-04-09T07:58:18.932Z,93982.56
2023-04-09T07:59:15.798Z,93976.66
2023-04-09T08:00:12.837Z,93978.41
2023-04-09T08:01:09.413Z,93967.06
2023-04-09T08:02:06.186Z,93986.88
2023-04-09T08:03:04.082Z,93981.75
2023-04-09T08:04:01.072Z,93985.16
2023-04-09T08:04:58.171Z,93981.13
2023-04-09T08:05:54.892Z,93983.84
2023-04-09T08:06:51.876Z,93986.13
2023-04-09T08:07:48.512Z,93990.69
2023-04-09T08:08:45.113Z,93991.56
2023-04-09T08:09:41.907Z,93991.88
2023-04-09T08:10:38.612Z,93986.47
2023-04-09T08:11:35.444Z,93982.72
2023-04-09T08:12:32.046Z,93994.16
2023-04-09T08:13:28.679Z,93988.81
2023-04-09T08:14:25.519Z,93954.41
2023-04-09T08:15:22.378Z,93988.16
2023-04-09T08:16:24.592Z,93991.34
2023-04-09T08:17:22.302Z,93983.72
2023-04-09T08:18:19.016Z,93987.84
2023-04-09T08:19:17.316Z,93973.59
2023-04-09T08:20:14.068Z,93960.84
2023-04-09T08:21:10.871Z,93996.16
2023-04-09T08:22:07.487Z,93963.81
2023-04-09T08:23:04.069Z,93963.03
2023-04-09T08:24:05.100Z,93987.22
2023-04-09T08:25:02.764Z,93989.38
2023-04-09T08:25:59.660Z,93993.13
2023-04-09T08:26:57.817Z,93997.22
2023-04-09T08:27:54.462Z,94005.47
2023-04-09T08:28:52.384Z,94001.38
2023-04-09T08:29:49.222Z,93998.59
2023-04-09T08:30:47.764Z,93944.03
2023-04-09T08:31:44.751Z,93998.69
2023-04-09T08:32:41.815Z,94000.22
2023-04-09T08:33:38.457Z,94001.75
2023-04-09T08:34:35.067Z,93997.16
2023-04-09T08:35:31.912Z,94011.44
2023-04-09T08:36:28.989Z,93990.19
2023-04-09T08:37:25.684Z,93999.03
2023-04-09T08:38:22.300Z,94001.09
2023-04-09T08:39:20.226Z,94000.63
2023-04-09T08:40:18.920Z,94017.81
2023-04-09T08:41:24.823Z,93983.56
2023-04-09T08:42:24.093Z,94001.41
2023-04-09T08:43:26.999Z,94004.91
2023-04-09T08:44:30.995Z,93985.78
2023-04-09T08:45:27.639Z,93999.88
2023-04-09T08:46:24.832Z,94000.41
2023-04-09T08:47:21.875Z,93996.88
2023-04-09T08:48:18.984Z,93969.63
2023-04-09T08:49:15.795Z,93953.63
2023-04-09T08:50:13.536Z,94010.38
2023-04-09T08:51:14.406Z,93991.28
2023-04-09T08:52:11.029Z,93987.66
2023-04-09T08:53:10.090Z,94002.50
2023-04-09T08:54:07.038Z,93998.50
2023-04-09T08:55:03.805Z,93944.00
2023-04-09T08:56:00.592Z,93993.75
2023-04-09T08:56:57.654Z,93985.91
2023-04-09T08:57:54.195Z,93989.13
2023-04-09T08:58:51.343Z,93996.94
2023-04-09T08:59:48.187Z,93988.38
2023-04-09T09:00:44.863Z,93974.22
2023-04-09T09:01:41.574Z,93984.75
2023-04-09T09:02:39.472Z,93970.84
2023-04-09T09:03:56.940Z,93983.78
2023-04-09T09:04:55.224Z,93980.97
2023-04-09T09:05:51.809Z,93986.06
2023-04-09T09:06:48.452Z,93980.47
2023-04-09T09:07:53.971Z,93977.38
2023-04-09T09:09:08.656Z,93931.72
2023-04-09T09:10:05.668Z,93972.25
2023-04-09T09:11:02.302Z,93965.06
2023-04-09T09:11:58.945Z,93964.28
2023-04-09T09:12:55.588Z,93966.25
2023-04-09T09:14:01.570Z,93958.91
2023-04-09T09:14:58.478Z,93954.47
2023-04-09T09:16:12.032Z,93929.13
2023-04-09T09:17:16.717Z,93960.47
2023-04-09T09:18:13.686Z,93957.09
2023-04-09T09:19:25.778Z,93956.38
2023-04-09T09:20:23.171Z,93959.47
2023-04-09T09:21:19.838Z,93960.81
2023-04-09T09:22:16.847Z,93966.16
2023-04-09T09:23:13.590Z,93958.19
2023-04-09T09:24:19.002Z,93953.88
2023-04-09T09:25:15.845Z,93964.63
2023-04-09T09:26:18.866Z,93963.50
2023-04-09T09:27:40.463Z,93957.44
2023-04-09T09:28:37.201Z,93962.34
2023-04-09T09:29:41.327Z,93939.56
2023-04-09T09:30:39.998Z,93953.59
2023-04-09T09:31:47.511Z,93957.22
2023-04-09T09:32:44.175Z,93952.81
2023-04-09T09:33:41.333Z,93920.72
2023-04-09T09:34:37.961Z,93952.91
2023-04-09T09:35:52.006Z,93911.59
2023-04-09T09:36:49.169Z,93938.72
2023-04-09T09:37:46.100Z,93919.50
2023-04-09T09:38:58.491Z,93945.50
2023-04-09T09:39:55.954Z,93915.00
2023-04-09T09:40:52.647Z,93948.94
2023-04-09T09:42:07.841Z,93949.78
2023-04-09T09:43:04.549Z,93938.69
2023-04-09T09:44:01.383Z,93913.78
2023-04-09T09:44:59.463Z,93915.53
2023-04-09T09:45:57.391Z,93936.97
2023-04-09T09:46:54.826Z,93936.59
2023-04-09T09:47:54.210Z,93932.03
2023-04-09T09:48:51.180Z,93938.00
2023-04-09T09:49:50.380Z,93775.03
2023-04-09T09:50:49.085Z,93941.38
2023-04-09T09:51:45.787Z,93937.97
2023-04-09T09:52:46.172Z,93933.81
2023-04-09T09:53:47.710Z,93928.19
2023-04-09T09:54:52.238Z,93929.00
2023-04-09T09:55:53.721Z,93941.75
2023-04-09T09:56:53.009Z,93889.28
2023-04-09T09:57:51.632Z,93931.28
2023-04-09T09:59:13.296Z,93924.19
2023-04-09T10:00:12.661Z,93927.88
2023-04-09T10:01:13.340Z,93927.34
2023-04-09T10:02:18.947Z,93922.47
2023-04-09T10:03:25.194Z,93928.78
2023-04-09T10:04:23.700Z,93927.38
2023-04-09T10:05:25.028Z,93933.00
2023-04-09T10:06:22.278Z,93924.34
2023-04-09T10:07:21.445Z,93897.31
2023-04-09T10:08:18.378Z,93929.34
2023-04-09T10:09:15.678Z,93914.59
2023-04-09T10:10:12.498Z,93926.75
2023-04-09T10:11:09.155Z,93927.28
2023-04-09T10:12:07.483Z,93923.56
2023-04-09T10:13:07.599Z,93921.69
2023-04-09T10:14:05.420Z,93912.25
2023-04-09T10:15:05.062Z,93924.63
2023-04-09T10:16:02.534Z,93916.16
2023-04-09T10:16:59.474Z,93916.41
2023-04-09T10:17:56.790Z,93921.03
2023-04-09T10:18:57.470Z,93923.63
2023-04-09T10:20:07.730Z,93930.44
2023-04-09T10:21:14.811Z,93918.13
2023-04-09T10:22:13.825Z,93914.44
2023-04-09T10:23:19.559Z,93906.81
2023-04-09T10:24:17.182Z,93897.72
2023-04-09T10:25:14.644Z,93865.84
2023-04-09T10:26:11.439Z,93918.88
2023-04-09T10:27:15.712Z,93919.25
2023-04-09T10:28:18.585Z,93923.50
2023-04-09T10:29:16.952Z,93910.31
2023-04-09T10:30:33.178Z,93915.06
2023-04-09T10:31:50.047Z,93916.50
2023-04-09T10:32:46.857Z,93889.00
2023-04-09T10:33:43.705Z,93879.28
2023-04-09T10:34:45.189Z,93887.09
2023-04-09T10:35:42.380Z,93893.44
2023-04-09T10:36:39.169Z,93899.81
2023-04-09T10:37:35.848Z,93908.41
2023-04-09T10:38:42.892Z,93891.78
2023-04-09T10:39:49.996Z,93901.91
2023-04-09T10:40:51.005Z,93897.66
2023-04-09T10:41:49.985Z,93888.28
2023-04-09T10:42:47.596Z,93900.13
2023-04-09T10:43:47.386Z,93901.63
2023-04-09T10:44:44.486Z,93871.94
2023-04-09T10:45:42.611Z,93902.34
2023-04-09T10:46:42.333Z,93867.03
2023-04-09T10:47:41.386Z,93870.34
2023-04-09T10:48:38.065Z,93897.00
2023-04-09T10:49:41.964Z,93912.09
2023-04-09T10:50:39.138Z,93898.63
2023-04-09T10:51:39.291Z,93893.13
2023-04-09T10:52:35.946Z,93896.13
2023-04-09T10:53:32.721Z,93898.34
2023-04-09T10:54:35.456Z,93900.81
2023-04-09T10:55:40.372Z,93861.00
2023-04-09T10:56:36.995Z,93889.03
2023-04-09T10:57:33.626Z,93776.06
2023-04-09T10:58:30.303Z,93893.94
2023-04-09T10:59:26.954Z,93887.28
2023-04-09T11:00:23.485Z,93888.75
2023-04-09T11:01:24.257Z,93883.25
2023-04-09T11:02:39.710Z,93895.53
2023-04-09T11:03:44.713Z,93844.03
2023-04-09T11:04:50.761Z,93893.63
2023-04-09T11:05:50.746Z,93884.25
2023-04-09T11:06:49.026Z,93887.84
2023-04-09T11:07:49.724Z,93869.75
2023-04-09T11:08:47.300Z,93877.13
2023-04-09T11:09:43.841Z,93867.78
2023-04-09T11:10:45.251Z,93880.88
2023-04-09T11:11:41.884Z,93875.16
2023-04-09T11:12:38.568Z,93869.63
2023-04-09T11:13:35.334Z,93865.22
2023-04-09T11:14:33.570Z,93881.41
2023-04-09T11:15:32.315Z,93870.28
2023-04-09T11:16:32.592Z,93868.13
2023-04-09T11:17:29.530Z,93873.53
2023-04-09T11:18:27.936Z,93878.16
2023-04-09T11:19:24.783Z,93875.72
2023-04-09T11:20:23.947Z,93880.44
2023-04-09T11:21:20.547Z,93870.13
2023-04-09T11:22:17.413Z,93867.41
2023-04-09T11:23:15.707Z,93874.78
2023-04-09T11:24:12.881Z,93871.84
2023-04-09T11:25:09.676Z,93877.63